Time;durP1;ratioP1;P1;durP2;ratioP2;P2;SDS_P1;SDS_P2;PMS_P1;PMS_P2;Temp;Humidity;BMP_temperature;BMP_pressure;BME280_temperature;BME280_humidity;BME280_pressure;Samples;Min_cycle;Max_cycle;Signal;HPM_P1;HPM_P2
2023/01/25 00:01:54;;;;;;;65.07;59.33;;;;;;;0.26;100.00;102895.28;5051756;28;20503;-80
2023/01/25 00:04:22;;;;;;;68.35;62.50;;;;;;;0.14;100.00;102900.25;5050957;28;20049;-79
2023/01/25 00:06:51;;;;;;;56.13;51.15;;;;;;;0.23;100.00;102901.50;5050305;28;20056;-80
2023/01/25 00:09:19;;;;;;;59.95;54.55;;;;;;;0.15;100.00;102896.72;5049756;28;20041;-80
2023/01/25 00:11:45;;;;;;;57.75;52.38;;;;;;;0.07;100.00;102890.22;5049586;28;20041;-80
2023/01/25 00:14:13;;;;;;;57.78;52.95;;;;;;;0.22;100.00;102894.63;5052225;28;20048;-80
2023/01/25 00:16:41;;;;;;;60.47;55.30;;;;;;;0.18;100.00;102893.06;5052513;28;20045;-80
2023/01/25 00:19:09;;;;;;;59.15;53.83;;;;;;;0.17;100.00;102896.63;5061495;28;20098;-80
2023/01/25 00:21:36;;;;;;;61.67;55.78;;;;;;;0.06;100.00;102889.41;5061835;28;20053;-79
2023/01/25 00:24:06;;;;;;;62.58;57.03;;;;;;;0.16;100.00;102887.13;5060207;28;20114;-80
2023/01/25 00:26:34;;;;;;;63.78;58.33;;;;;;;0.06;100.00;102880.69;5058664;28;20057;-79
2023/01/25 00:29:01;;;;;;;60.78;55.50;;;;;;;0.06;100.00;102884.16;5060881;28;20130;-80
2023/01/25 00:31:38;;;;;;;58.67;53.05;;;;;;;0.18;100.00;102887.84;5062205;28;20407;-80
2023/01/25 00:34:28;;;;;;;72.03;65.70;;;;;;;0.15;100.00;102882.78;5061246;28;20049;-80
2023/01/25 00:36:57;;;;;;;64.10;58.42;;;;;;;0.12;100.00;102882.97;5057507;28;20450;-80
2023/01/25 00:39:26;;;;;;;59.00;54.05;;;;;;;0.08;100.00;102886.69;5058114;28;20044;-79
2023/01/25 00:41:54;;;;;;;59.72;54.67;;;;;;;0.05;100.00;102886.84;5059316;28;20130;-80
2023/01/25 00:44:20;;;;;;;55.95;51.25;;;;;;;0.02;100.00;102885.25;5060868;28;20476;-80
2023/01/25 00:46:48;;;;;;;53.20;48.78;;;;;;;-0.01;100.00;102891.47;5061987;28;20102;-80
2023/01/25 00:49:19;;;;;;;56.13;51.20;;;;;;;0.07;100.00;102885.00;5060936;28;20122;-80
2023/01/25 00:51:45;;;;;;;56.45;51.50;;;;;;;-0.01;100.00;102888.88;5057018;28;20049;-80
2023/01/25 00:54:12;;;;;;;56.67;51.97;;;;;;;0.03;100.00;102886.94;5055484;28;20480;-80
2023/01/25 00:56:40;;;;;;;59.85;54.75;;;;;;;0.05;100.00;102886.84;5055424;28;20049;-80
2023/01/25 00:59:07;;;;;;;54.88;50.13;;;;;;;0.09;100.00;102881.38;5060837;28;20049;-80
2023/01/25 01:01:34;;;;;;;58.03;53.38;;;;;;;-0.03;100.00;102885.50;5060494;28;20044;-81
2023/01/25 01:04:01;;;;;;;56.22;51.35;;;;;;;0.01;100.00;102880.97;5060688;28;20067;-80
2023/01/25 01:06:28;;;;;;;54.28;49.78;;;;;;;-0.06;100.00;102875.22;5058161;28;20045;-80
2023/01/25 01:08:54;;;;;;;55.70;51.00;;;;;;;-0.04;100.00;102875.13;5053173;28;20114;-80
2023/01/25 01:11:21;;;;;;;57.72;52.63;;;;;;;-0.07;100.00;102881.38;5053590;28;20067;-80
2023/01/25 01:13:49;;;;;;;59.25;53.88;;;;;;;-0.12;100.00;102883.41;5059767;28;20067;-79
2023/01/25 01:16:16;;;;;;;64.93;59.20;;;;;;;-0.20;100.00;102876.91;5060250;28;20510;-80
2023/01/25 01:18:45;;;;;;;56.67;51.50;;;;;;;-0.06;100.00;102887.44;5053785;28;20102;-80
2023/01/25 01:21:13;;;;;;;55.78;50.88;;;;;;;0.02;100.00;102877.41;5058749;28;20048;-80
2023/01/25 01:23:40;;;;;;;57.58;52.80;;;;;;;-0.06;100.00;102883.06;5058333;28;20049;-80
2023/01/25 01:26:09;;;;;;;60.15;54.83;;;;;;;-0.17;100.00;102869.75;5055811;28;20099;-80
2023/01/25 01:28:38;;;;;;;54.92;49.72;;;;;;;-0.17;100.00;102874.97;5059729;28;20171;-80
2023/01/25 01:31:08;;;;;;;54.60;50.00;;;;;;;-0.10;100.00;102867.63;5060005;28;20045;-80
2023/01/25 01:33:35;;;;;;;55.63;50.80;;;;;;;-0.13;100.00;102879.09;5054887;28;20053;-80
2023/01/25 01:36:07;;;;;;;57.72;52.42;;;;;;;-0.18;100.00;102873.28;5057698;28;20052;-81
2023/01/25 01:38:34;;;;;;;58.17;53.10;;;;;;;-0.26;100.00;102875.47;5058007;28;20041;-80
2023/01/25 01:41:00;;;;;;;60.40;54.97;;;;;;;-0.34;100.00;102872.41;5058833;28;20098;-80
2023/01/25 01:43:29;;;;;;;54.53;49.63;;;;;;;-0.27;100.00;102877.25;5060050;28;20041;-79
2023/01/25 01:45:58;;;;;;;57.38;52.33;;;;;;;-0.35;100.00;102871.56;5059554;28;20049;-80
2023/01/25 01:48:33;;;;;;;67.70;61.30;;;;;;;-0.36;100.00;102869.91;5060160;28;20056;-80
2023/01/25 01:51:03;;;;;;;63.45;57.90;;;;;;;-0.32;100.00;102867.97;5057414;28;20049;-80
2023/01/25 01:53:32;;;;;;;55.42;50.53;;;;;;;-0.33;100.00;102864.50;5057791;28;20113;-80
2023/01/25 01:56:02;;;;;;;61.70;55.05;;;;;;;-0.28;100.00;102862.47;5060478;28;20067;-80
2023/01/25 01:58:30;;;;;;;59.75;54.50;;;;;;;-0.47;100.00;102856.56;5055774;28;20045;-80
2023/01/25 02:00:57;;;;;;;63.15;57.33;;;;;;;-0.40;100.00;102864.91;5056548;28;20079;-79
2023/01/25 02:03:24;;;;;;;61.83;56.15;;;;;;;-0.41;100.00;102855.41;5059437;28;20498;-80
2023/01/25 02:05:56;;;;;;;63.80;57.92;;;;;;;-0.39;100.00;102857.00;5058490;28;20099;-80
2023/01/25 02:08:24;;;;;;;59.10;53.72;;;;;;;-0.41;100.00;102858.00;5057852;28;20114;-80
2023/01/25 02:10:51;;;;;;;60.65;55.15;;;;;;;-0.42;100.00;102858.91;5058877;28;20433;-80
2023/01/25 02:13:19;;;;;;;60.55;54.90;;;;;;;-0.40;100.00;102864.91;5058650;28;20049;-80
2023/01/25 02:15:48;;;;;;;59.55;54.40;;;;;;;-0.46;100.00;102851.25;5055708;28;20049;-80
2023/01/25 02:18:15;;;;;;;55.42;50.67;;;;;;;-0.49;100.00;102848.78;5058927;28;20127;-80
2023/01/25 02:20:45;;;;;;;58.58;53.22;;;;;;;-0.37;100.00;102851.69;5058243;28;20049;-80
2023/01/25 02:23:22;;;;;;;59.28;54.00;;;;;;;-0.41;100.00;102858.84;5058634;28;20456;-80
2023/01/25 02:25:51;;;;;;;56.38;51.47;;;;;;;-0.38;100.00;102855.22;5057660;28;20122;-79
2023/01/25 02:28:21;;;;;;;60.65;55.22;;;;;;;-0.41;100.00;102853.63;5057234;28;20055;-80
2023/01/25 02:30:48;;;;;;;60.75;55.10;;;;;;;-0.40;100.00;102846.63;5056052;28;20053;-80
2023/01/25 02:33:15;;;;;;;62.65;57.63;;;;;;;-0.43;100.00;102847.63;5056586;28;20048;-81
2023/01/25 02:35:46;;;;;;;85.70;79.18;;;;;;;-0.42;100.00;102848.47;5059223;28;20119;-80
2023/01/25 02:38:16;;;;;;;71.45;65.70;;;;;;;-0.47;100.00;102846.13;5058138;28;20049;-80
2023/01/25 02:40:48;;;;;;;64.60;59.08;;;;;;;-0.42;100.00;102843.25;5058373;28;20052;-80
2023/01/25 02:43:17;;;;;;;58.80;53.72;;;;;;;-0.49;100.00;102848.78;5055877;28;20045;-80
2023/01/25 02:45:47;;;;;;;69.30;63.47;;;;;;;-0.46;100.00;102846.03;5058074;28;20049;-80
2023/01/25 02:48:14;;;;;;;73.63;67.72;;;;;;;-0.48;100.00;102834.00;5059056;28;20049;-80
2023/01/25 02:50:41;;;;;;;62.38;57.05;;;;;;;-0.42;100.00;102838.88;5058062;28;20048;-80
2023/01/25 02:53:08;;;;;;;61.72;56.58;;;;;;;-0.44;100.00;102837.28;5056937;28;20057;-80
2023/01/25 02:55:34;;;;;;;62.30;56.80;;;;;;;-0.43;100.00;102836.34;5057812;28;20049;-80
2023/01/25 02:58:01;;;;;;;59.33;53.88;;;;;;;-0.50;100.00;102841.91;5056839;28;20502;-80
2023/01/25 03:00:29;;;;;;;59.92;54.83;;;;;;;-0.47;100.00;102839.13;5057232;28;20063;-79
2023/01/25 03:02:56;;;;;;;61.67;55.97;;;;;;;-0.60;100.00;102838.09;5057210;28;20045;-80
2023/01/25 03:05:22;;;;;;;66.20;60.22;;;;;;;-0.48;100.00;102849.66;5055965;28;20045;-79
2023/01/25 03:07:49;;;;;;;65.32;59.58;;;;;;;-0.45;100.00;102836.44;5057916;28;20502;-80
2023/01/25 03:10:16;;;;;;;64.85;59.20;;;;;;;-0.47;100.00;102844.34;5057941;28;20057;-80
2023/01/25 03:12:43;;;;;;;61.25;55.55;;;;;;;-0.43;100.00;102838.97;5056947;28;20118;-80
2023/01/25 03:15:10;;;;;;;70.38;62.95;;;;;;;-0.52;100.00;102851.56;5057229;28;20049;-80
2023/01/25 03:17:38;;;;;;;85.18;64.75;;;;;;;-0.48;100.00;102847.06;5057263;28;20474;-79
2023/01/25 03:20:05;;;;;;;65.65;58.63;;;;;;;-0.47;100.00;102846.13;5057192;28;20486;-80
2023/01/25 03:22:32;;;;;;;63.15;56.80;;;;;;;-0.42;100.00;102853.69;5058307;28;20534;-80
2023/01/25 03:24:59;;;;;;;62.92;57.40;;;;;;;-0.46;100.00;102846.03;5057262;28;20106;-80
2023/01/25 03:27:25;;;;;;;61.90;56.10;;;;;;;-0.63;100.00;102835.66;5056599;28;20461;-80
2023/01/25 03:29:52;;;;;;;58.63;53.22;;;;;;;-0.48;100.00;102840.06;5057587;28;20045;-80
2023/01/25 03:32:19;;;;;;;61.47;55.72;;;;;;;-0.57;100.00;102840.53;5057834;28;20045;-80
2023/01/25 03:34:47;;;;;;;58.88;53.42;;;;;;;-0.49;100.00;102842.72;5057444;28;20075;-80
2023/01/25 03:37:13;;;;;;;84.15;64.70;;;;;;;-0.58;100.00;102840.63;5057866;28;20114;-79
2023/01/25 03:39:40;;;;;;;76.22;59.80;;;;;;;-0.50;100.00;102841.91;5056951;28;20559;-80
2023/01/25 03:42:07;;;;;;;67.68;59.38;;;;;;;-0.52;100.00;102833.28;5056465;28;20052;-80
2023/01/25 03:44:34;;;;;;;64.55;57.58;;;;;;;-0.50;100.00;102835.84;5056585;28;20103;-80
2023/01/25 03:47:01;;;;;;;64.20;57.45;;;;;;;-0.48;100.00;102834.00;5056915;28;20551;-80
2023/01/25 03:49:27;;;;;;;65.00;58.00;;;;;;;-0.54;100.00;102839.53;5056743;28;20118;-80
2023/01/25 03:51:56;;;;;;;63.75;57.50;;;;;;;-0.46;100.00;102834.75;5057112;28;20076;-80
2023/01/25 03:54:24;;;;;;;60.25;54.67;;;;;;;-0.39;100.00;102835.25;5057150;28;20075;-79
2023/01/25 03:56:51;;;;;;;60.45;55.17;;;;;;;-0.51;100.00;102845.44;5056152;28;20103;-79
2023/01/25 03:59:18;;;;;;;59.67;54.13;;;;;;;-0.44;100.00;102845.94;5057567;28;20041;-80
2023/01/25 04:01:44;;;;;;;60.20;54.72;;;;;;;-0.53;100.00;102841.22;5056779;28;20045;-80
2023/01/25 04:04:11;;;;;;;61.95;56.25;;;;;;;-0.59;100.00;102833.72;5056150;28;20067;-80
2023/01/25 04:06:38;;;;;;;59.10;53.20;;;;;;;-0.43;100.00;102831.13;5057484;28;20044;-80
2023/01/25 04:09:06;;;;;;;60.88;55.35;;;;;;;-0.55;100.00;102833.47;5055306;28;20045;-79
2023/01/25 04:11:33;;;;;;;57.58;52.72;;;;;;;-0.50;100.00;102831.44;5056623;28;20044;-80
2023/01/25 04:14:00;;;;;;;56.17;50.90;;;;;;;-0.42;100.00;102838.03;5056612;28;20564;-79
2023/01/25 04:16:29;;;;;;;58.78;53.53;;;;;;;-0.41;100.00;102842.34;5056710;28;20041;-80
2023/01/25 04:18:56;;;;;;;55.55;50.17;;;;;;;-0.71;100.00;102838.66;5056545;28;20045;-79
2023/01/25 04:21:23;;;;;;;56.90;51.58;;;;;;;-0.62;100.00;102831.28;5057151;28;20316;-80
2023/01/25 04:23:49;;;;;;;96.53;84.00;;;;;;;-0.68;100.00;102829.81;5056346;28;20055;-80
2023/01/25 04:26:17;;;;;;;95.25;83.97;;;;;;;-0.52;100.00;102843.72;5057556;28;20457;-80
2023/01/25 04:28:44;;;;;;;72.18;64.68;;;;;;;-0.54;100.00;102832.56;5056183;28;20112;-79
2023/01/25 04:31:11;;;;;;;61.13;54.78;;;;;;;-0.57;100.00;102847.53;5054884;28;20045;-80
2023/01/25 04:33:37;;;;;;;61.78;55.67;;;;;;;-0.53;100.00;102843.84;5055432;28;20045;-80
2023/01/25 04:36:05;;;;;;;60.95;55.35;;;;;;;-0.53;100.00;102843.84;5056198;28;20048;-80
2023/01/25 04:38:31;;;;;;;58.95;53.55;;;;;;;-0.51;100.00;102855.03;5056092;28;20060;-80
2023/01/25 04:40:58;;;;;;;58.58;53.05;;;;;;;-0.45;100.00;102859.94;5056244;28;20041;-80
2023/01/25 04:43:26;;;;;;;60.60;54.65;;;;;;;-0.47;100.00;102852.19;5055961;28;20056;-80
2023/01/25 04:45:53;;;;;;;59.28;54.20;;;;;;;-0.44;100.00;102859.00;5056357;28;20049;-80
2023/01/25 04:48:20;;;;;;;59.75;53.95;;;;;;;-0.51;100.00;102861.09;5056216;28;20049;-80
2023/01/25 04:50:46;;;;;;;61.70;56.00;;;;;;;-0.47;100.00;102864.41;5051032;28;20079;-80
2023/01/25 04:53:13;;;;;;;64.65;59.05;;;;;;;-0.57;100.00;102858.81;5050292;28;20126;-80
2023/01/25 04:55:40;;;;;;;53.75;48.63;;;;;;;-0.51;100.00;102863.72;5049153;28;20049;-80
2023/01/25 04:58:07;;;;;;;56.38;50.65;;;;;;;-0.53;100.00;102855.13;5059601;28;20052;-80
2023/01/25 05:00:35;;;;;;;58.70;52.85;;;;;;;-0.53;100.00;102862.09;5057883;28;20509;-79
2023/01/25 05:03:02;;;;;;;59.13;53.45;;;;;;;-0.65;100.00;102855.75;5058852;28;20107;-80
2023/01/25 05:05:29;;;;;;;63.92;58.10;;;;;;;-0.70;100.00;102855.16;5057735;28;20067;-80
2023/01/25 05:07:56;;;;;;;65.57;59.70;;;;;;;-0.72;100.00;102855.25;5055702;28;20048;-80
2023/01/25 05:10:23;;;;;;;55.63;50.47;;;;;;;-0.63;100.00;102850.47;5048773;28;20042;-80
2023/01/25 05:12:50;;;;;;;56.95;51.45;;;;;;;-0.66;100.00;102850.63;5049766;28;20049;-80
2023/01/25 05:15:16;;;;;;;58.75;53.05;;;;;;;-0.68;100.00;102844.66;5050915;28;20072;-80
2023/01/25 05:17:45;;;;;;;62.85;56.78;;;;;;;-0.65;100.00;102857.53;5052856;28;20056;-79
2023/01/25 05:20:13;;;;;;;64.43;57.95;;;;;;;-0.58;100.00;102851.88;5056662;28;20118;-80
2023/01/25 05:22:39;;;;;;;59.72;54.08;;;;;;;-0.71;100.00;102853.47;5043367;28;20106;-80
2023/01/25 05:26:59;;;;;;;61.88;56.05;;;;;;;-0.73;100.00;102856.19;5056963;28;20049;-80
2023/01/25 05:27:53;;;;;;;57.83;52.35;;;;;;;-0.70;100.00;102844.72;5052187;28;20138;-80
2023/01/25 05:30:19;;;;;;;57.97;52.50;;;;;;;-0.74;100.00;102849.25;5058736;28;20057;-80
2023/01/25 05:32:48;;;;;;;57.08;51.47;;;;;;;-0.76;100.00;102845.03;5015028;28;20102;-81
2023/01/25 05:35:15;;;;;;;57.33;51.33;;;;;;;-0.96;100.00;102852.13;5054107;28;20063;-79
2023/01/25 05:37:42;;;;;;;54.90;49.45;;;;;;;-0.96;100.00;102846.91;5055710;28;20049;-80
2023/01/25 05:40:10;;;;;;;55.88;50.08;;;;;;;-0.85;100.00;102854.19;5051230;28;20466;-80
2023/01/25 05:42:36;;;;;;;53.30;47.65;;;;;;;-0.98;100.00;102848.75;5050187;28;20518;-81
2023/01/25 05:45:03;;;;;;;54.20;48.80;;;;;;;-0.92;100.00;102850.22;5054886;28;20221;-80
2023/01/25 05:47:30;;;;;;;54.20;49.00;;;;;;;-0.70;100.00;102845.56;5055254;28;20049;-81
2023/01/25 05:49:58;;;;;;;53.38;48.30;;;;;;;-0.62;100.00;102852.16;5056972;28;20075;-80
2023/01/25 05:52:25;;;;;;;54.22;48.53;;;;;;;-0.72;100.00;102851.81;5047136;28;20057;-81
2023/01/25 05:54:52;;;;;;;55.20;49.13;;;;;;;-0.83;100.00;102851.50;5056190;28;20126;-80
2023/01/25 05:57:21;;;;;;;57.13;51.35;;;;;;;-0.94;100.00;102850.31;5054877;28;20053;-80
2023/01/25 05:59:48;;;;;;;56.08;50.28;;;;;;;-0.78;100.00;102855.56;5056880;28;20502;-79
2023/01/25 06:02:20;;;;;;;54.95;49.70;;;;;;;-0.63;100.00;102866.97;5057798;28;20403;-80
2023/01/25 06:04:46;;;;;;;54.05;48.83;;;;;;;-0.82;100.00;102854.00;5055498;28;20131;-80
2023/01/25 06:07:26;;;;;;;55.03;49.63;;;;;;;-0.76;100.00;102864.13;5059280;28;20110;-80
2023/01/25 06:09:55;;;;;;;54.08;48.92;;;;;;;-0.67;100.00;102861.97;5056052;28;20045;-80
2023/01/25 06:12:22;;;;;;;56.10;50.35;;;;;;;-0.64;100.00;102854.81;5055919;28;20118;-79
2023/01/25 06:14:49;;;;;;;57.47;51.60;;;;;;;-0.68;100.00;102855.91;5053116;28;20107;-80
2023/01/25 06:17:16;;;;;;;55.42;49.80;;;;;;;-0.66;100.00;102868.91;5052018;28;20041;-79
2023/01/25 06:19:43;;;;;;;57.22;51.33;;;;;;;-0.58;100.00;102864.09;5050645;28;20564;-80
2023/01/25 06:22:12;;;;;;;58.22;52.17;;;;;;;-0.56;100.00;102860.50;5048931;28;20564;-80
2023/01/25 06:24:44;;;;;;;65.55;51.10;;;;;;;-0.51;100.00;102862.88;5050391;28;20106;-80
2023/01/25 06:27:14;;;;;;;67.75;60.78;;;;;;;-0.72;100.00;102868.28;5055083;28;20167;-80
2023/01/25 06:29:44;;;;;;;58.08;52.47;;;;;;;-0.61;100.00;102872.94;5051386;28;20399;-80
2023/01/25 06:32:12;;;;;;;56.08;51.10;;;;;;;-0.72;100.00;102868.28;5052665;28;20041;-79
2023/01/25 06:34:40;;;;;;;60.10;53.67;;;;;;;-0.60;100.00;102877.25;5050168;28;20498;-80
2023/01/25 06:37:09;;;;;;;56.05;50.58;;;;;;;-0.58;100.00;102871.94;5056535;28;20053;-80
2023/01/25 06:39:37;;;;;;;56.88;51.50;;;;;;;-0.56;100.00;102881.38;5053773;28;20057;-80
2023/01/25 06:42:08;;;;;;;56.50;51.00;;;;;;;-0.48;100.00;102881.00;5050266;28;20045;-80
2023/01/25 06:44:35;;;;;;;55.15;50.05;;;;;;;-0.61;100.00;102875.53;5058345;28;20480;-80
2023/01/25 06:47:04;;;;;;;54.67;49.67;;;;;;;-0.46;100.00;102874.75;5056940;28;20049;-79
2023/01/25 06:49:32;;;;;;;57.55;51.53;;;;;;;-0.49;100.00;102872.28;5057375;28;20045;-80
2023/01/25 06:52:00;;;;;;;55.53;50.30;;;;;;;-0.57;100.00;102871.88;5047216;28;20053;-80
2023/01/25 06:54:27;;;;;;;57.40;51.47;;;;;;;-0.52;100.00;102869.84;5053103;28;20510;-80
2023/01/25 06:56:55;;;;;;;52.83;47.33;;;;;;;-0.49;100.00;102872.28;5050801;28;20046;-80
2023/01/25 06:59:35;;;;;;;54.33;48.75;;;;;;;-0.45;100.00;102873.00;5048415;28;20045;-79
2023/01/25 07:02:04;;;;;;;56.60;51.20;;;;;;;-0.38;100.00;102876.97;5049576;28;20041;-79
2023/01/25 07:04:33;;;;;;;56.20;50.33;;;;;;;-0.52;100.00;102874.22;5055003;28;20049;-80
2023/01/25 07:07:03;;;;;;;55.67;50.28;;;;;;;-0.51;100.00;102876.78;5055413;28;20044;-80
2023/01/25 07:09:33;;;;;;;65.72;59.15;;;;;;;-0.46;100.00;102874.75;5055634;28;20552;-80
2023/01/25 07:12:03;;;;;;;58.03;52.08;;;;;;;-0.67;100.00;102882.88;5053937;28;20084;-80
2023/01/25 07:14:34;;;;;;;61.53;55.63;;;;;;;-0.54;100.00;102891.75;5053103;28;20053;-80
2023/01/25 07:17:09;;;;;;;64.68;58.13;;;;;;;-0.45;100.00;102893.88;5056318;28;20102;-80
2023/01/25 07:19:36;;;;;;;53.55;48.30;;;;;;;-0.64;100.00;102880.94;5053774;28;20049;-80
2023/01/25 07:22:03;;;;;;;66.40;56.65;;;;;;;-0.48;100.00;102881.00;5057955;28;20041;-80
2023/01/25 07:24:30;;;;;;;64.10;57.30;;;;;;;-0.58;100.00;102887.59;5053343;28;20559;-80
2023/01/25 07:26:57;;;;;;;58.25;52.35;;;;;;;-0.57;100.00;102882.31;5057139;28;20395;-80
2023/01/25 07:29:26;;;;;;;60.75;54.90;;;;;;;-0.49;100.00;102887.97;5055756;28;20111;-80
2023/01/25 07:32:06;;;;;;;61.20;54.58;;;;;;;-0.45;100.00;102883.44;5055209;28;20045;-80
2023/01/25 07:34:34;;;;;;;176.20;91.38;;;;;;;-0.29;100.00;102883.47;5051027;28;20049;-80
2023/01/25 07:37:03;;;;;;;63.50;56.47;;;;;;;-0.48;100.00;102888.81;5057608;28;20102;-79
2023/01/25 07:39:33;;;;;;;56.88;51.38;;;;;;;-0.62;100.00;102886.09;5055645;28;20088;-80
2023/01/25 07:42:00;;;;;;;58.75;53.03;;;;;;;-0.56;100.00;102897.03;5057765;28;20076;-80
2023/01/25 07:44:28;;;;;;;59.45;53.30;;;;;;;-0.36;100.00;102895.16;5057157;28;20481;-80
2023/01/25 07:47:01;;;;;;;60.00;54.30;;;;;;;-0.46;100.00;102900.84;5057173;28;20049;-79
2023/01/25 07:49:31;;;;;;;59.65;53.28;;;;;;;-0.42;100.00;102895.47;5044344;28;20055;-80
2023/01/25 07:51:59;;;;;;;88.47;66.97;;;;;;;-0.36;100.00;102897.78;5037719;28;20053;-80
2023/01/25 07:54:27;;;;;;;96.80;66.90;;;;;;;-0.33;100.00;102887.19;5049232;28;20107;-80
2023/01/25 07:56:56;;;;;;;58.75;52.47;;;;;;;-0.38;100.00;102891.78;5056300;28;20052;-80
2023/01/25 07:59:24;;;;;;;58.67;52.92;;;;;;;-0.57;100.00;102890.16;5053939;28;20049;-80
2023/01/25 08:01:55;;;;;;;68.30;58.88;;;;;;;-0.26;100.00;102891.97;5055532;28;20104;-80
2023/01/25 08:04:25;;;;;;;57.88;52.17;;;;;;;-0.37;100.00;102893.47;5054783;28;20054;-80
2023/01/25 08:06:53;;;;;;;62.28;55.83;;;;;;;-0.35;100.00;102887.25;5056962;28;20147;-79
2023/01/25 08:09:21;;;;;;;58.13;52.00;;;;;;;-0.37;100.00;102890.84;5055983;28;20067;-80
2023/01/25 08:11:48;;;;;;;58.60;52.22;;;;;;;-0.22;100.00;102879.59;5055107;28;20103;-80
2023/01/25 08:14:15;;;;;;;143.35;77.80;;;;;;;-0.23;100.00;102888.34;5055117;28;20061;-80
2023/01/25 08:16:42;;;;;;;87.53;60.38;;;;;;;-0.14;100.00;102887.03;5053770;28;20056;-80
2023/01/25 08:19:09;;;;;;;57.90;52.22;;;;;;;-0.31;100.00;102883.53;5057786;28;20073;-81
2023/01/25 08:21:42;;;;;;;57.28;51.50;;;;;;;-0.26;100.00;102883.28;5057288;28;20133;-80
2023/01/25 08:24:10;;;;;;;55.80;50.22;;;;;;;-0.06;100.00;102887.44;5056981;28;20057;-80
2023/01/25 08:26:38;;;;;;;59.38;53.10;;;;;;;-0.32;100.00;102884.47;5049768;28;20061;-79
2023/01/25 08:29:07;;;;;;;56.13;50.50;;;;;;;-0.13;100.00;102881.69;5054666;28;20048;-80
2023/01/25 08:31:40;;;;;;;59.67;53.45;;;;;;;-0.11;100.00;102874.63;5062110;28;20048;-80
2023/01/25 08:34:07;;;;;;;61.75;55.40;;;;;;;0.10;100.00;102884.84;5060849;28;20110;-80
2023/01/25 08:36:35;;;;;;;59.90;53.78;;;;;;;-0.13;100.00;102875.63;5059657;28;20564;-80
2023/01/25 08:39:08;;;;;;;61.33;55.35;;;;;;;0.19;100.00;102884.31;5055290;28;20045;-80
2023/01/25 08:41:36;;;;;;;370.60;159.88;;;;;;;0.17;100.00;102873.94;5060368;28;20041;-80
2023/01/25 08:44:06;;;;;;;76.03;63.35;;;;;;;0.26;100.00;102876.97;5061206;28;20045;-79
2023/01/25 08:46:34;;;;;;;66.13;58.92;;;;;;;0.29;100.00;102867.19;5059988;28;20044;-80
2023/01/25 08:49:04;;;;;;;68.00;60.72;;;;;;;0.19;100.00;102860.81;5057801;28;20037;-80
2023/01/25 08:51:33;;;;;;;58.28;52.50;;;;;;;0.27;100.00;102873.44;5057662;28;20083;-80
2023/01/25 08:54:10;;;;;;;55.25;50.08;;;;;;;0.26;100.00;102858.69;5060509;28;20049;-80
2023/01/25 08:56:37;;;;;;;55.10;50.08;;;;;;;0.13;100.00;102866.38;5050856;28;20053;-80
2023/01/25 08:59:06;;;;;;;56.28;50.72;;;;;;;0.32;100.00;102866.19;5059762;28;20048;-80
2023/01/25 09:04:13;;;;;;;53.47;48.22;;;;;;;0.48;100.00;102853.91;5054902;28;20052;-79
2023/01/25 09:06:41;;;;;;;69.47;58.55;;;;;;;0.25;100.00;102860.47;5057026;28;20475;-79
2023/01/25 09:09:11;;;;;;;66.28;59.33;;;;;;;0.39;100.00;102852.69;5055828;28;20563;-80
2023/01/25 09:11:42;;;;;;;57.03;51.85;;;;;;;0.21;100.00;102853.69;5048156;28;20102;-80
2023/01/25 09:14:10;;;;;;;58.60;53.08;;;;;;;0.38;100.00;102847.53;5059102;28;20051;-80
2023/01/25 09:17:14;;;;;;;54.45;49.38;;;;;;;0.26;100.00;102848.22;5055720;28;20046;-80
2023/01/25 09:23:50;;;;;;;54.85;49.55;;;;;;;0.26;100.00;102843.00;4974071;28;20057;-79
2023/01/25 09:36:51;;;;;;;62.50;56.10;;;;;;;0.44;100.00;102821.88;5057951;28;20502;-80
2023/01/25 09:54:07;;;;;;;53.72;49.03;;;;;;;0.57;100.00;102789.78;5005327;28;20528;-80
2023/01/25 09:56:37;;;;;;;53.80;49.13;;;;;;;0.72;100.00;102788.03;5040761;28;20133;-79
2023/01/25 09:59:10;;;;;;;58.50;53.38;;;;;;;0.96;100.00;102783.94;5052929;28;20054;-80
2023/01/25 10:01:44;;;;;;;;;;;;;;;0.79;100.00;102782.38;5050571;28;20229;-80
2023/01/25 10:04:15;;;;;;;51.78;47.65;;;;;;;0.80;100.00;102772.72;5056008;28;20336;-81
2023/01/25 10:06:49;;;;;;;52.00;47.70;;;;;;;0.96;100.00;102778.72;5052984;28;20071;-80
2023/01/25 10:09:53;;;;;;;54.75;49.67;;;;;;;1.01;100.00;102781.06;5044814;28;20127;-80
2023/01/25 10:12:25;;;;;;;54.83;49.92;;;;;;;0.60;100.00;102776.53;5049098;28;20437;-80
2023/01/25 10:14:53;;;;;;;60.33;54.15;;;;;;;0.63;100.00;102781.56;5052572;28;20052;-80
2023/01/25 10:17:35;;;;;;;57.10;51.70;;;;;;;0.83;100.00;102780.41;5049390;28;20502;-80
2023/01/25 10:20:06;;;;;;;;;;;;;;;0.98;100.00;102774.25;5044407;28;20049;-80
2023/01/25 10:22:43;;;;;;;52.10;47.75;;;;;;;0.89;100.00;102770.41;5044963;28;20345;-80
2023/01/25 10:25:31;;;;;;;53.58;48.85;;;;;;;0.87;100.00;102767.03;5046845;28;20045;-80
2023/01/25 10:28:28;;;;;;;58.00;53.03;;;;;;;1.12;100.00;102765.53;5052212;28;20053;-80
2023/01/25 10:31:02;;;;;;;57.85;52.80;;;;;;;0.76;100.00;102769.47;5049068;28;20142;-80
2023/01/25 10:33:37;;;;;;;57.42;52.10;;;;;;;0.81;100.00;102759.53;5052207;28;20061;-80
2023/01/25 10:36:08;;;;;;;55.65;50.35;;;;;;;0.94;100.00;102751.81;5044906;28;20057;-80
2023/01/25 10:38:44;;;;;;;56.08;51.03;;;;;;;0.86;100.00;102740.97;5041463;28;20056;-79
2023/01/25 10:41:19;;;;;;;53.30;48.67;;;;;;;0.96;100.00;102729.00;5045456;28;20140;-80
2023/01/25 10:44:20;;;;;;;57.03;51.80;;;;;;;1.00;100.00;102722.66;5039173;28;20576;-80
2023/01/25 10:46:36;;;;;;;54.20;49.50;;;;;;;1.27;100.00;102717.50;5048395;28;20155;-79
2023/01/25 10:49:20;;;;;;;54.58;49.75;;;;;;;1.27;100.00;102717.50;5050672;28;20098;-79
2023/01/25 10:51:48;;;;;;;54.22;49.47;;;;;;;1.38;100.00;102706.31;5051438;28;20103;-80
2023/01/25 10:54:17;;;;;;;50.70;46.47;;;;;;;1.37;100.00;102689.78;5050603;28;20049;-79
2023/01/25 10:56:46;;;;;;;51.08;46.88;;;;;;;1.38;100.00;102685.38;5046018;28;20103;-80
2023/01/25 10:59:23;;;;;;;52.25;47.88;;;;;;;1.33;100.00;102677.81;5051408;28;20126;-80
2023/01/25 11:02:21;;;;;;;54.13;49.85;;;;;;;1.53;100.00;102691.41;5045007;28;20056;-80
2023/01/25 11:04:48;;;;;;;51.53;47.42;;;;;;;1.38;100.00;102674.91;5039436;28;20052;-80
2023/01/25 11:10:31;;;;;;;50.60;46.50;;;;;;;1.57;100.00;102658.84;5046698;28;20531;-80
2023/01/25 11:13:35;;;;;;;50.15;46.13;;;;;;;1.27;100.00;102661.66;5045652;28;20509;-80
2023/01/25 11:16:25;;;;;;;52.80;48.53;;;;;;;1.37;100.00;102652.28;5046802;28;20053;-80
2023/01/25 11:18:55;;;;;;;53.10;48.53;;;;;;;1.20;100.00;102655.97;5052130;28;20183;-80
2023/01/25 11:21:24;;;;;;;59.22;52.60;;;;;;;1.28;100.00;102664.19;5052400;28;20102;-80
2023/01/25 11:24:17;;;;;;;55.83;50.65;;;;;;;1.47;100.00;102653.34;5051929;28;20067;-80
2023/01/25 11:26:44;;;;;;;57.45;52.40;;;;;;;1.37;100.00;102645.25;5050207;28;20052;-80
2023/01/25 11:29:19;;;;;;;57.95;53.03;;;;;;;1.41;100.00;102652.91;5046743;28;20052;-80
2023/01/25 11:34:34;;;;;;;58.80;53.60;;;;;;;1.27;100.00;102653.78;5015467;28;20055;-80
2023/01/25 11:37:21;;;;;;;56.83;51.80;;;;;;;0.99;100.00;102645.06;5052790;28;20110;-80
2023/01/25 11:40:03;;;;;;;55.97;50.83;;;;;;;1.27;100.00;102641.56;5048155;28;20434;-80
2023/01/25 11:42:36;;;;;;;54.97;50.13;;;;;;;1.16;100.00;102641.41;5041701;28;20064;-79
2023/01/25 11:45:48;;;;;;;56.33;51.40;;;;;;;0.97;100.00;102631.25;5046311;28;20053;-80
2023/01/25 11:48:53;;;;;;;55.53;50.55;;;;;;;0.98;100.00;102624.25;5042950;28;20053;-80
2023/01/25 11:51:27;;;;;;;56.25;50.92;;;;;;;1.07;100.00;102627.13;5021506;28;20550;-80
2023/01/25 11:54:12;;;;;;;57.00;51.72;;;;;;;1.01;100.00;102616.19;5048353;28;20063;-80
2023/01/25 11:56:51;;;;;;;59.55;54.03;;;;;;;1.04;100.00;102621.25;5050165;28;20095;-80